Time;durP1;ratioP1;P1;durP2;ratioP2;P2;SDS_P1;SDS_P2;PMS_P1;PMS_P2;Temp;Humidity;BMP_temperature;BMP_pressure;BME280_temperature;BME280_humidity;BME280_pressure;Samples;Min_cycle;Max_cycle;Signal;HPM_P1;HPM_P2
2022/07/24 00:00:51;;;;;;;7.65;6.95;;;15.90;99.90;;;;;;4987274;28;20049;-47
2022/07/24 00:03:18;;;;;;;7.68;6.88;;;15.90;99.90;;;;;;4975454;28;20062;-45
2022/07/24 00:05:48;;;;;;;8.30;7.45;;;15.80;99.90;;;;;;4970604;28;20444;-52
2022/07/24 00:08:15;;;;;;;6.90;6.20;;;15.90;99.90;;;;;;4987909;28;20440;-50
2022/07/24 00:10:44;;;;;;;7.40;6.68;;;15.80;99.90;;;;;;4982274;28;20054;-48
2022/07/24 00:13:13;;;;;;;8.45;7.07;;;15.80;99.90;;;;;;4997347;28;20050;-46
2022/07/24 00:15:40;;;;;;;7.00;6.35;;;15.80;99.90;;;;;;4970909;28;20053;-52
2022/07/24 00:18:07;;;;;;;7.75;7.05;;;15.70;99.90;;;;;;4968361;28;20077;-48
2022/07/24 00:20:34;;;;;;;7.47;6.72;;;15.70;99.90;;;;;;4998058;28;20493;-49
2022/07/24 00:23:01;;;;;;;7.97;7.22;;;15.80;99.90;;;;;;4980975;28;20397;-47
2022/07/24 00:25:29;;;;;;;8.90;7.57;;;15.70;99.90;;;;;;4967204;28;20046;-47
2022/07/24 00:27:55;;;;;;;7.80;7.10;;;15.70;99.90;;;;;;5007148;28;20496;-49
2022/07/24 00:30:23;;;;;;;7.68;6.97;;;15.70;99.90;;;;;;4994376;28;20493;-48
2022/07/24 00:32:52;;;;;;;8.70;7.80;;;15.60;99.90;;;;;;4991248;28;20061;-48
2022/07/24 00:35:19;;;;;;;8.20;7.50;;;15.60;99.90;;;;;;4998710;28;20050;-48
2022/07/24 00:37:49;;;;;;;8.05;7.25;;;15.60;99.90;;;;;;4964929;28;20050;-51
2022/07/24 00:40:16;;;;;;;11.88;8.63;;;15.60;99.90;;;;;;4970355;28;20054;-55
2022/07/24 00:42:50;;;;;;;8.63;7.93;;;15.60;99.90;;;;;;4979272;28;20050;-50
2022/07/24 00:45:17;;;;;;;8.35;7.13;;;15.50;99.90;;;;;;4979978;28;20548;-52
2022/07/24 00:47:44;;;;;;;8.48;7.68;;;15.50;99.90;;;;;;4970165;28;20105;-51
2022/07/24 00:50:11;;;;;;;7.88;7.18;;;15.50;99.90;;;;;;4981454;28;20050;-48
2022/07/24 00:52:42;;;;;;;8.02;7.30;;;15.50;99.90;;;;;;4987301;28;20046;-49
2022/07/24 00:55:10;;;;;;;8.65;7.80;;;15.50;99.90;;;;;;4989505;28;20540;-48
2022/07/24 00:57:38;;;;;;;7.95;7.25;;;15.50;99.90;;;;;;4996143;28;20064;-50
2022/07/24 01:00:10;;;;;;;8.32;7.63;;;15.50;99.90;;;;;;4982598;28;20053;-47
2022/07/24 01:02:41;;;;;;;8.80;8.10;;;15.40;99.90;;;;;;4974343;28;20050;-50
2022/07/24 01:05:16;;;;;;;9.05;8.25;;;15.50;99.90;;;;;;5002423;28;20504;-49
2022/07/24 01:07:43;;;;;;;9.18;8.10;;;15.50;99.90;;;;;;4989035;28;20054;-47
2022/07/24 01:10:19;;;;;;;9.18;8.27;;;15.50;99.90;;;;;;4990438;28;20060;-50
2022/07/24 01:12:46;;;;;;;9.65;8.82;;;15.50;99.90;;;;;;4979204;28;20088;-49
2022/07/24 01:15:14;;;;;;;9.30;8.38;;;15.50;99.90;;;;;;4991608;28;20589;-45
2022/07/24 01:17:45;;;;;;;9.50;8.65;;;15.40;99.90;;;;;;4989192;28;20050;-51
2022/07/24 01:20:12;;;;;;;9.25;8.40;;;15.40;99.90;;;;;;4981360;28;20049;-48
2022/07/24 01:22:41;;;;;;;9.48;8.73;;;15.40;99.90;;;;;;4972425;28;20350;-50
2022/07/24 01:25:08;;;;;;;10.10;9.10;;;15.40;99.90;;;;;;4959232;28;20058;-50
2022/07/24 01:27:40;;;;;;;9.18;8.38;;;15.40;99.90;;;;;;5006204;28;20382;-52
2022/07/24 01:30:11;;;;;;;9.90;8.90;;;15.30;99.90;;;;;;5003740;28;20133;-48
2022/07/24 01:32:39;;;;;;;10.52;9.55;;;15.40;99.90;;;;;;4984668;28;20132;-49
2022/07/24 01:35:07;;;;;;;11.23;9.63;;;15.40;99.90;;;;;;4988215;28;20045;-50
2022/07/24 01:37:37;;;;;;;10.38;9.32;;;15.30;99.90;;;;;;4995924;28;20436;-46
2022/07/24 01:40:05;;;;;;;11.00;9.80;;;15.30;99.90;;;;;;4988789;28;20044;-49
2022/07/24 01:42:31;;;;;;;10.27;9.27;;;15.30;99.90;;;;;;5002320;28;20054;-48
2022/07/24 01:44:58;;;;;;;10.90;9.90;;;15.30;99.90;;;;;;5000397;28;20050;-49
2022/07/24 01:47:25;;;;;;;10.43;9.32;;;15.30;99.90;;;;;;4985341;28;20058;-49
2022/07/24 01:49:53;;;;;;;11.38;10.27;;;15.30;99.90;;;;;;5002618;28;20046;-49
2022/07/24 01:52:25;;;;;;;11.98;10.90;;;15.30;99.90;;;;;;4989200;28;20112;-49
2022/07/24 01:54:55;;;;;;;11.07;9.98;;;15.30;99.90;;;;;;4989940;28;20493;-52
2022/07/24 01:57:24;;;;;;;11.75;10.65;;;15.30;99.90;;;;;;4975071;28;20085;-54
2022/07/24 01:59:55;;;;;;;11.90;10.70;;;15.30;99.90;;;;;;5005410;28;20054;-49
2022/07/24 02:02:22;;;;;;;11.60;10.50;;;15.30;99.90;;;;;;4972247;28;20049;-48
2022/07/24 02:04:52;;;;;;;11.75;10.38;;;15.20;99.90;;;;;;4980899;28;20072;-52
2022/07/24 02:07:20;;;;;;;11.45;10.45;;;15.20;99.90;;;;;;4969367;28;20053;-51
2022/07/24 02:09:56;;;;;;;10.57;9.55;;;15.20;99.90;;;;;;4959547;28;20485;-49
2022/07/24 02:12:22;;;;;;;12.15;11.05;;;15.20;99.90;;;;;;4986594;28;20108;-51
2022/07/24 02:14:50;;;;;;;13.15;10.68;;;15.20;99.90;;;;;;4965266;28;20578;-50
2022/07/24 02:17:17;;;;;;;11.65;10.45;;;15.20;99.90;;;;;;4976178;28;20097;-51
2022/07/24 02:19:44;;;;;;;11.10;10.13;;;15.20;99.90;;;;;;4979714;28;20047;-48
2022/07/24 02:22:12;;;;;;;10.68;9.68;;;15.20;99.90;;;;;;5021318;28;20041;-50
2022/07/24 02:24:41;;;;;;;11.77;10.63;;;15.20;99.90;;;;;;4971086;28;20124;-49
2022/07/24 02:27:12;;;;;;;11.90;10.80;;;15.30;99.90;;;;;;5002328;28;20081;-51
2022/07/24 02:29:41;;;;;;;11.60;10.50;;;15.20;99.90;;;;;;4996868;28;20381;-47
2022/07/24 02:32:11;;;;;;;11.32;10.35;;;15.30;99.90;;;;;;4987723;28;20463;-47
2022/07/24 02:34:39;;;;;;;11.60;10.45;;;15.20;99.90;;;;;;5005335;28;20046;-50
2022/07/24 02:37:08;;;;;;;11.13;10.02;;;15.30;99.90;;;;;;4975553;28;20682;-53
2022/07/24 02:39:41;;;;;;;10.52;9.63;;;15.30;99.90;;;;;;4987095;28;20042;-49
2022/07/24 02:42:10;;;;;;;11.18;10.10;;;15.30;99.90;;;;;;4987501;28;20141;-49
2022/07/24 02:44:37;;;;;;;11.95;10.77;;;15.30;99.90;;;;;;5005210;28;20392;-53
2022/07/24 02:47:11;;;;;;;12.18;11.15;;;15.30;99.90;;;;;;4988155;28;20054;-50
2022/07/24 02:49:40;;;;;;;11.77;10.60;;;15.30;99.90;;;;;;4968043;28;20085;-48
2022/07/24 02:52:08;;;;;;;11.13;10.20;;;15.30;99.90;;;;;;4988529;28;20294;-46
2022/07/24 02:54:36;;;;;;;12.20;10.95;;;15.30;99.90;;;;;;5005174;28;20053;-50
2022/07/24 02:57:02;;;;;;;11.15;10.18;;;15.30;99.90;;;;;;4994212;28;20405;-51
2022/07/24 02:59:30;;;;;;;11.52;10.35;;;15.30;99.90;;;;;;5003845;28;20050;-50
2022/07/24 03:01:58;;;;;;;11.25;10.30;;;15.30;99.90;;;;;;5006112;28;20057;-48
2022/07/24 03:04:24;;;;;;;11.15;10.15;;;15.30;99.90;;;;;;5012810;28;20194;-52
2022/07/24 03:06:52;;;;;;;12.48;11.13;;;15.30;99.90;;;;;;4987527;28;20049;-46
2022/07/24 03:09:19;;;;;;;12.02;11.00;;;15.30;99.90;;;;;;5015977;28;20596;-51
2022/07/24 03:11:45;;;;;;;12.10;10.98;;;15.30;99.90;;;;;;4988702;28;20089;-51
2022/07/24 03:14:11;;;;;;;11.95;10.85;;;15.30;99.90;;;;;;4986450;28;20428;-48
2022/07/24 03:16:46;;;;;;;12.00;10.90;;;15.30;99.90;;;;;;4996508;28;20132;-52
2022/07/24 03:19:15;;;;;;;11.95;10.77;;;15.30;99.90;;;;;;5005678;28;20073;-49
2022/07/24 03:21:47;;;;;;;11.40;10.20;;;15.40;99.90;;;;;;4991257;28;20080;-48
2022/07/24 03:24:17;;;;;;;13.00;11.27;;;15.40;99.90;;;;;;5028697;28;20046;-48
2022/07/24 03:26:53;;;;;;;13.32;12.02;;;15.40;99.90;;;;;;5010133;28;20052;-50
2022/07/24 03:29:37;;;;;;;11.25;10.23;;;15.40;99.90;;;;;;5000906;28;20654;-49
2022/07/24 03:32:03;;;;;;;12.02;10.80;;;15.40;99.90;;;;;;4990465;28;20136;-51
2022/07/24 03:34:30;;;;;;;12.70;11.48;;;15.40;99.90;;;;;;5003750;28;20080;-46
2022/07/24 03:37:15;;;;;;;12.90;11.70;;;15.40;99.90;;;;;;4988495;28;20064;-49
2022/07/24 03:39:42;;;;;;;12.82;11.45;;;15.40;99.90;;;;;;5007885;28;20551;-46
2022/07/24 03:42:09;;;;;;;12.98;11.75;;;15.40;99.90;;;;;;4994280;28;20054;-52
2022/07/24 03:44:38;;;;;;;13.05;11.75;;;15.40;99.90;;;;;;5008237;28;20153;-51
2022/07/24 03:47:07;;;;;;;13.05;11.85;;;15.40;99.90;;;;;;5002205;28;20136;-53
2022/07/24 03:49:34;;;;;;;13.63;11.55;;;15.40;99.90;;;;;;4991086;28;20577;-51
2022/07/24 03:52:01;;;;;;;14.73;11.65;;;15.40;99.90;;;;;;5027878;28;20057;-49
2022/07/24 03:54:27;;;;;;;13.27;11.98;;;15.40;99.90;;;;;;4978647;28;20045;-49
2022/07/24 03:56:53;;;;;;;14.60;12.25;;;15.40;99.90;;;;;;5016656;28;20494;-48
2022/07/24 03:59:19;;;;;;;12.50;11.35;;;15.40;99.90;;;;;;4997311;28;20181;-44
2022/07/24 04:01:49;;;;;;;13.55;12.25;;;15.40;99.90;;;;;;4982947;28;20104;-48
2022/07/24 04:04:16;;;;;;;13.50;12.10;;;15.40;99.90;;;;;;5001352;28;20195;-49
2022/07/24 04:06:43;;;;;;;13.60;12.15;;;15.50;99.90;;;;;;4961343;28;20110;-49
2022/07/24 04:09:10;;;;;;;13.68;12.27;;;15.40;99.90;;;;;;4970468;28;20050;-51
2022/07/24 04:11:37;;;;;;;13.00;11.68;;;15.50;99.90;;;;;;4996743;28;20045;-53
2022/07/24 04:14:04;;;;;;;13.50;12.30;;;15.50;99.90;;;;;;4996740;28;20089;-51
2022/07/24 04:16:30;;;;;;;13.65;12.32;;;15.50;99.90;;;;;;4988259;28;20497;-46
2022/07/24 04:18:57;;;;;;;13.82;12.52;;;15.50;99.90;;;;;;4959045;28;20137;-49
2022/07/24 04:21:24;;;;;;;14.98;13.38;;;15.50;99.90;;;;;;4970253;28;20058;-48
2022/07/24 04:23:55;;;;;;;14.07;12.73;;;15.50;99.90;;;;;;4979463;28;20512;-48
2022/07/24 04:26:22;;;;;;;15.77;14.18;;;15.60;99.90;;;;;;5008826;28;20046;-47
2022/07/24 04:28:52;;;;;;;13.38;12.10;;;15.60;99.90;;;;;;4972163;28;20104;-48
2022/07/24 04:31:19;;;;;;;13.85;12.55;;;15.70;99.90;;;;;;4956493;28;20060;-51
2022/07/24 04:33:48;;;;;;;13.75;12.45;;;15.80;99.90;;;;;;4958581;28;20050;-51
2022/07/24 04:36:17;;;;;;;15.05;13.55;;;16.00;99.90;;;;;;4965772;28;20085;-50
2022/07/24 04:38:43;;;;;;;14.73;13.23;;;16.20;99.90;;;;;;4990044;28;20073;-50
2022/07/24 04:41:13;;;;;;;14.07;12.52;;;16.50;99.90;;;;;;4989802;28;20480;-53
2022/07/24 04:43:40;;;;;;;13.13;11.73;;;16.80;99.90;;;;;;4977971;28;20513;-48
2022/07/24 04:46:06;;;;;;;13.07;11.88;;;17.20;99.90;;;;;;5000799;28;20060;-52
2022/07/24 04:48:36;;;;;;;13.25;12.07;;;17.80;99.90;;;;;;4982581;28;20533;-54
2022/07/24 04:51:02;;;;;;;13.48;12.07;;;18.50;99.90;;;;;;5000939;28;20127;-49
2022/07/24 04:53:30;;;;;;;12.60;11.40;;;19.00;99.90;;;;;;5006683;28;20108;-51
2022/07/24 04:55:58;;;;;;;13.10;11.90;;;19.40;99.90;;;;;;4972707;28;20056;-48
2022/07/24 04:58:28;;;;;;;13.93;11.60;;;19.80;99.90;;;;;;4965542;28;20050;-51
2022/07/24 05:00:55;;;;;;;12.57;11.38;;;20.30;99.90;;;;;;4956756;28;20050;-48
2022/07/24 05:03:21;;;;;;;12.75;11.50;;;20.40;99.90;;;;;;4987598;28;20082;-50
2022/07/24 05:05:47;;;;;;;12.80;11.57;;;20.50;99.90;;;;;;4956270;28;20189;-50
2022/07/24 05:08:14;;;;;;;13.18;11.73;;;20.50;99.90;;;;;;4982316;28;20045;-51
2022/07/24 05:10:40;;;;;;;12.57;11.43;;;20.40;99.90;;;;;;4981239;28;20568;-52
2022/07/24 05:13:08;;;;;;;13.77;12.38;;;20.10;99.90;;;;;;4968665;28;20046;-50
2022/07/24 05:15:40;;;;;;;13.10;12.00;;;20.00;99.90;;;;;;4966583;28;20054;-51
2022/07/24 05:18:07;;;;;;;12.73;11.48;;;20.00;99.90;;;;;;4996017;28;20103;-50
2022/07/24 05:20:32;;;;;;;12.68;11.57;;;20.40;99.90;;;;;;4988849;28;20050;-49
2022/07/24 05:23:09;;;;;;;13.10;11.95;;;20.80;99.90;;;;;;4980490;28;20046;-53
2022/07/24 05:25:43;;;;;;;13.20;11.90;;;21.20;99.90;;;;;;4963780;28;20050;-47
2022/07/24 05:28:13;;;;;;;12.25;11.25;;;21.30;99.90;;;;;;4986907;28;20088;-51
2022/07/24 05:30:43;;;;;;;11.70;10.60;;;21.80;99.90;;;;;;4967885;28;20077;-49
2022/07/24 05:33:13;;;;;;;12.30;11.10;;;22.70;99.90;;;;;;4993534;28;20046;-50
2022/07/24 05:35:41;;;;;;;12.20;10.70;;;23.70;99.90;;;;;;4961714;28;20053;-50
2022/07/24 05:38:10;;;;;;;11.77;10.77;;;24.60;99.90;;;;;;4987087;28;20042;-52
2022/07/24 05:40:40;;;;;;;11.57;10.57;;;25.40;99.90;;;;;;4968979;28;20058;-50
2022/07/24 05:43:06;;;;;;;12.10;10.93;;;26.00;99.90;;;;;;5000322;28;20067;-44
2022/07/24 05:45:34;;;;;;;11.85;10.85;;;26.60;99.90;;;;;;4986731;28;20042;-50
2022/07/24 05:48:00;;;;;;;11.18;10.20;;;27.10;99.80;;;;;;4989096;28;20058;-52
2022/07/24 05:50:27;;;;;;;12.32;11.27;;;27.40;99.10;;;;;;4963321;28;20264;-52
2022/07/24 05:52:57;;;;;;;11.77;10.68;;;27.70;98.30;;;;;;4985026;28;20083;-52
2022/07/24 05:55:24;;;;;;;12.13;11.02;;;28.00;97.70;;;;;;4987772;28;20109;-52
2022/07/24 05:57:51;;;;;;;13.13;11.82;;;28.30;97.10;;;;;;4971640;28;20102;-52
2022/07/24 06:00:18;;;;;;;12.60;11.50;;;28.60;96.70;;;;;;4991395;28;20053;-48
2022/07/24 06:02:46;;;;;;;12.10;10.93;;;28.90;96.00;;;;;;4982972;28;20082;-51
2022/07/24 06:05:15;;;;;;;14.95;11.70;;;29.10;95.80;;;;;;4967967;28;20056;-50
2022/07/24 06:07:44;;;;;;;12.60;11.60;;;29.60;95.50;;;;;;4996851;28;20444;-53
2022/07/24 06:10:11;;;;;;;13.43;12.23;;;30.00;94.70;;;;;;5005171;28;20078;-52
2022/07/24 06:12:39;;;;;;;14.07;12.75;;;30.50;94.60;;;;;;4988247;28;20046;-50
2022/07/24 06:15:06;;;;;;;14.55;13.35;;;30.70;93.60;;;;;;4988347;28;20140;-51
2022/07/24 06:17:32;;;;;;;15.02;13.70;;;31.00;93.00;;;;;;5005496;28;20192;-51
2022/07/24 06:19:59;;;;;;;16.13;14.77;;;30.90;92.50;;;;;;4988028;28;20057;-49
2022/07/24 06:22:25;;;;;;;16.20;14.77;;;30.40;92.90;;;;;;4987799;28;20053;-50
2022/07/24 06:24:51;;;;;;;15.75;14.30;;;29.40;92.90;;;;;;4987653;28;20113;-54
2022/07/24 06:27:22;;;;;;;24.88;15.77;;;28.90;94.20;;;;;;4979932;28;20047;-50
2022/07/24 06:29:49;;;;;;;18.42;16.73;;;29.30;93.90;;;;;;4980021;28;20117;-49
2022/07/24 06:32:16;;;;;;;15.50;14.20;;;29.90;93.40;;;;;;4978073;28;20441;-49
2022/07/24 06:34:44;;;;;;;17.05;15.55;;;30.70;92.80;;;;;;4987234;28;20052;-51
2022/07/24 06:37:14;;;;;;;16.20;14.80;;;31.10;92.10;;;;;;4971401;28;20100;-50
2022/07/24 06:39:41;;;;;;;15.75;14.25;;;31.70;91.20;;;;;;4988248;28;20053;-49
2022/07/24 06:42:09;;;;;;;15.65;14.43;;;32.00;90.80;;;;;;4952584;28;20136;-51
2022/07/24 06:44:52;;;;;;;15.93;14.52;;;32.30;90.80;;;;;;4998681;28;20102;-51
2022/07/24 06:47:19;;;;;;;15.30;13.82;;;32.50;89.40;;;;;;4968784;28;20046;-47
2022/07/24 06:49:45;;;;;;;14.90;13.65;;;32.50;90.40;;;;;;4985461;28;20054;-50
2022/07/24 06:52:12;;;;;;;16.17;14.73;;;33.00;90.20;;;;;;4968209;28;20054;-51
2022/07/24 06:54:38;;;;;;;15.30;13.75;;;33.10;90.00;;;;;;4996554;28;20038;-56
2022/07/24 06:57:10;;;;;;;14.45;13.13;;;33.20;88.40;;;;;;5003660;28;20058;-47
2022/07/24 06:59:36;;;;;;;;;;;33.20;87.70;;;;;;4962127;28;20196;-52
2022/07/24 07:02:05;;;;;;;13.73;12.60;;;33.30;87.70;;;;;;4955290;28;19977;-50
2022/07/24 07:04:32;;;;;;;12.43;11.35;;;32.10;87.50;;;;;;4977275;28;20434;-51
2022/07/24 07:07:01;;;;;;;13.02;11.93;;;30.40;89.80;;;;;;5007690;28;20049;-51
2022/07/24 07:09:28;;;;;;;13.25;11.93;;;29.30;90.80;;;;;;4975882;28;20042;-52
2022/07/24 07:11:55;;;;;;;12.73;11.68;;;28.30;91.90;;;;;;4964500;28;20053;-50
2022/07/24 07:14:22;;;;;;;12.07;11.00;;;27.40;92.60;;;;;;5028817;28;20088;-46
2022/07/24 07:16:49;;;;;;;12.30;11.10;;;26.80;93.00;;;;;;5009927;28;20045;-52
2022/07/24 07:19:16;;;;;;;11.73;10.63;;;26.20;93.80;;;;;;4998024;28;20062;-52
2022/07/24 07:21:42;;;;;;;12.10;10.93;;;26.00;94.40;;;;;;4997743;28;20053;-51
2022/07/24 07:24:16;;;;;;;13.00;11.40;;;25.70;94.90;;;;;;4993386;28;20061;-49
2022/07/24 07:26:43;;;;;;;11.90;10.88;;;25.50;95.20;;;;;;5010289;28;20482;-50
2022/07/24 07:29:11;;;;;;;11.18;10.18;;;25.60;95.80;;;;;;5010660;28;20531;-50
2022/07/24 07:31:43;;;;;;;12.10;10.90;;;25.70;96.20;;;;;;5010565;28;20497;-49
2022/07/24 07:34:11;;;;;;;;;;;26.00;96.70;;;;;;5009260;28;20084;-53
2022/07/24 07:36:40;;;;;;;10.65;9.70;;;26.30;95.90;;;;;;4965915;28;19968;-51
2022/07/24 07:39:06;;;;;;;10.38;9.40;;;26.40;95.90;;;;;;5018244;28;20092;-51
2022/07/24 07:41:33;;;;;;;10.85;9.85;;;26.20;95.50;;;;;;4977194;28;20496;-50
2022/07/24 07:44:01;;;;;;;9.73;8.77;;;26.10;95.90;;;;;;5017935;28;20053;-50
2022/07/24 07:46:28;;;;;;;9.65;8.68;;;26.00;96.40;;;;;;5000358;28;20085;-45
2022/07/24 07:48:55;;;;;;;9.50;8.70;;;25.90;96.10;;;;;;4977154;28;20163;-49
2022/07/24 07:51:22;;;;;;;12.25;8.65;;;26.00;96.50;;;;;;4995765;28;20492;-48
2022/07/24 07:53:49;;;;;;;9.20;8.25;;;26.00;96.60;;;;;;5010274;28;20088;-50
2022/07/24 07:56:15;;;;;;;9.00;7.93;;;25.90;96.10;;;;;;4992998;28;20115;-50
2022/07/24 07:58:44;;;;;;;8.90;8.05;;;25.70;96.20;;;;;;5000909;28;20394;-53
2022/07/24 08:01:11;;;;;;;9.73;8.73;;;25.50;96.10;;;;;;4998612;28;20042;-49
2022/07/24 08:03:40;;;;;;;9.38;7.30;;;25.70;96.30;;;;;;5008124;28;20092;-50
2022/07/24 08:06:07;;;;;;;8.52;7.45;;;25.70;96.20;;;;;;4980568;28;20053;-49
2022/07/24 08:08:34;;;;;;;9.77;6.88;;;26.00;95.90;;;;;;5007435;28;20131;-48
2022/07/24 08:11:00;;;;;;;8.30;6.80;;;26.00;95.90;;;;;;5003837;28;20089;-50
2022/07/24 08:13:27;;;;;;;11.38;7.25;;;26.00;96.10;;;;;;5023316;28;20088;-48
2022/07/24 08:15:53;;;;;;;6.75;5.63;;;26.20;96.20;;;;;;5017929;28;20128;-46
2022/07/24 08:18:21;;;;;;;7.28;6.03;;;26.20;95.80;;;;;;5019808;28;20424;-49
2022/07/24 08:20:50;;;;;;;4.80;4.40;;;26.20;95.90;;;;;;5009614;28;20053;-52
2022/07/24 08:23:26;;;;;;;6.93;5.93;;;26.30;95.70;;;;;;5006071;28;20060;-46
2022/07/24 08:25:54;;;;;;;6.30;5.32;;;26.60;95.60;;;;;;5008175;28;20473;-48
2022/07/24 08:28:22;;;;;;;9.15;4.80;;;26.90;96.30;;;;;;4991222;28;20053;-48
2022/07/24 08:30:50;;;;;;;6.88;5.22;;;27.20;95.40;;;;;;4980740;28;20140;-50
2022/07/24 08:33:17;;;;;;;9.65;5.35;;;27.50;95.30;;;;;;5025532;28;20046;-50
2022/07/24 08:35:45;;;;;;;5.32;4.80;;;27.70;94.60;;;;;;5012344;28;20065;-48
2022/07/24 08:38:12;;;;;;;7.13;5.05;;;27.50;94.50;;;;;;4991432;28;20132;-50
2022/07/24 08:40:41;;;;;;;5.22;4.38;;;27.50;95.00;;;;;;5016976;28;20084;-45
2022/07/24 08:43:12;;;;;;;5.88;4.15;;;27.70;95.20;;;;;;5005746;28;20050;-51
2022/07/24 08:45:43;;;;;;;6.40;4.35;;;27.90;95.10;;;;;;4990390;28;20524;-49
2022/07/24 08:48:11;;;;;;;6.28;4.30;;;28.10;95.00;;;;;;5000828;28;20460;-50
2022/07/24 08:50:43;;;;;;;5.40;3.95;;;28.10;93.80;;;;;;5005078;28;20128;-49
2022/07/24 08:53:11;;;;;;;8.10;4.18;;;28.10;93.90;;;;;;5007188;28;20053;-50
2022/07/24 08:55:43;;;;;;;7.45;4.40;;;27.90;94.50;;;;;;5005152;28;20475;-48
2022/07/24 08:58:13;;;;;;;4.13;3.70;;;27.90;94.40;;;;;;4983960;28;20512;-51
2022/07/24 09:00:41;;;;;;;5.90;3.85;;;28.00;94.90;;;;;;5006668;28;20114;-51
2022/07/24 09:03:12;;;;;;;5.68;3.97;;;28.10;95.10;;;;;;4988644;28;20049;-51
2022/07/24 09:05:57;;;;;;;4.90;3.58;;;27.90;94.30;;;;;;4967865;28;20058;-49
2022/07/24 09:09:04;;;;;;;6.28;3.53;;;28.10;94.90;;;;;;4992181;28;20057;-49
2022/07/24 09:11:36;;;;;;;4.50;3.78;;;28.20;94.30;;;;;;4980272;28;20043;-48
2022/07/24 09:17:20;;;;;;;8.15;3.78;;;28.50;94.10;;;;;;4992977;28;20611;-49
2022/07/24 09:19:53;;;;;;;4.47;3.95;;;28.20;93.70;;;;;;5005618;28;20084;-51
2022/07/24 09:22:47;;;;;;;5.35;3.88;;;28.20;94.10;;;;;;5004615;28;20495;-53
2022/07/24 09:25:22;;;;;;;6.15;3.70;;;28.00;94.00;;;;;;4987653;28;20089;-49
2022/07/24 09:27:54;;;;;;;5.32;3.75;;;28.20;94.50;;;;;;4973725;28;20054;-51
2022/07/24 09:30:31;;;;;;;5.60;3.38;;;28.30;94.10;;;;;;5006967;28;20501;-49
2022/07/24 09:33:14;;;;;;;5.30;4.03;;;28.10;94.00;;;;;;4972435;28;20374;-48
2022/07/24 09:35:49;;;;;;;5.72;3.88;;;28.00;94.30;;;;;;5005434;28;20165;-46
2022/07/24 09:38:18;;;;;;;;;;;27.90;94.30;;;;;;4982941;28;20591;-49
2022/07/24 09:40:50;;;;;;;4.28;3.05;;;27.80;94.50;;;;;;4984528;28;20383;-50
2022/07/24 09:43:20;;;;;;;5.53;3.78;;;27.80;94.60;;;;;;4983469;28;20555;-47
2022/07/24 09:46:08;;;;;;;6.78;3.95;;;27.90;94.90;;;;;;4948413;28;20117;-48
2022/07/24 09:48:38;;;;;;;6.10;3.90;;;28.10;94.60;;;;;;5006145;28;20107;-52
2022/07/24 09:51:16;;;;;;;5.85;3.50;;;28.10;94.60;;;;;;4973231;28;20062;-49
2022/07/24 09:53:46;;;;;;;5.15;3.50;;;27.90;93.70;;;;;;4977585;28;20192;-51
2022/07/24 09:56:16;;;;;;;6.55;3.63;;;28.00;94.60;;;;;;4971590;28;20485;-52
2022/07/24 09:58:47;;;;;;;5.03;3.80;;;28.20;95.20;;;;;;4970318;28;20058;-50
2022/07/24 10:01:19;;;;;;;4.15;3.72;;;28.10;94.40;;;;;;4987127;28;20081;-53
2022/07/24 10:03:48;;;;;;;7.68;3.97;;;27.90;93.80;;;;;;4986485;28;20046;-52
2022/07/24 10:06:19;;;;;;;4.95;3.88;;;27.60;94.30;;;;;;4985408;28;20429;-49
2022/07/24 10:08:48;;;;;;;6.45;3.80;;;27.70;94.50;;;;;;4990133;28;20049;-49
2022/07/24 10:11:19;;;;;;;4.18;3.47;;;27.90;95.30;;;;;;4975874;28;20064;-51
2022/07/24 10:13:46;;;;;;;4.28;3.67;;;28.10;95.00;;;;;;5000487;28;20057;-46
2022/07/24 10:16:13;;;;;;;5.97;4.10;;;28.20;95.20;;;;;;4985979;28;20143;-49
2022/07/24 10:18:58;;;;;;;6.80;4.35;;;28.20;94.20;;;;;;4982587;28;20049;-50
2022/07/24 10:21:30;;;;;;;4.68;3.88;;;28.00;94.20;;;;;;4991105;28;20132;-50
2022/07/24 10:24:03;;;;;;;;;;;27.90;94.20;;;;;;5019764;28;20046;-50
2022/07/24 10:26:56;;;;;;;6.82;3.70;;;28.00;94.90;;;;;;4981280;28;19925;-52
2022/07/24 10:29:27;;;;;;;6.05;4.03;;;28.10;94.30;;;;;;4997268;28;20041;-51
2022/07/24 10:31:56;;;;;;;4.22;3.67;;;28.10;94.30;;;;;;4978426;28;20061;-47
2022/07/24 10:34:31;;;;;;;4.53;3.70;;;28.20;94.30;;;;;;5005637;28;20042;-49
2022/07/24 10:37:20;;;;;;;5.45;4.15;;;28.30;94.40;;;;;;4974649;28;20044;-51
2022/07/24 10:39:47;;;;;;;5.55;3.40;;;28.60;94.60;;;;;;5020144;28;20057;-45
2022/07/24 10:42:18;;;;;;;4.15;3.60;;;28.90;94.90;;;;;;5025879;28;20479;-50
2022/07/24 10:45:13;;;;;;;4.60;3.90;;;29.00;94.30;;;;;;4998220;28;20520;-50
2022/07/24 10:47:40;;;;;;;3.95;3.30;;;28.80;93.20;;;;;;5002956;28;20092;-47
2022/07/24 10:50:06;;;;;;;6.20;3.78;;;28.80;94.00;;;;;;5007818;28;20092;-48
2022/07/24 10:52:39;;;;;;;5.97;3.92;;;28.70;94.00;;;;;;5025119;28;20563;-51
2022/07/24 10:55:29;;;;;;;5.60;3.65;;;28.50;94.30;;;;;;4980180;28;20622;-50
2022/07/24 10:58:14;;;;;;;3.88;3.08;;;28.50;93.90;;;;;;4983496;28;20458;-50
2022/07/24 11:00:45;;;;;;;3.85;3.15;;;28.30;93.50;;;;;;4994353;28;20446;-50
2022/07/24 11:03:32;;;;;;;4.60;3.20;;;28.30;94.00;;;;;;5009269;28;20046;-50
2022/07/24 11:06:05;;;;;;;4.85;3.22;;;28.20;94.30;;;;;;4987004;28;20054;-52
2022/07/24 11:08:45;;;;;;;4.10;3.35;;;28.20;94.40;;;;;;4987524;28;20587;-52
2022/07/24 11:11:25;;;;;;;5.05;3.47;;;28.30;94.80;;;;;;4994299;28;20559;-51
2022/07/24 11:14:02;;;;;;;5.13;3.40;;;28.40;95.00;;;;;;4991409;28;20045;-52
2022/07/24 11:16:36;;;;;;;4.80;3.58;;;28.30;94.40;;;;;;4982132;28;20053;-52
2022/07/24 11:19:06;;;;;;;5.75;3.10;;;28.30;94.40;;;;;;4992280;28;20503;-52
2022/07/24 11:21:44;;;;;;;5.78;2.85;;;28.40;94.10;;;;;;4991462;28;20108;-49
2022/07/24 11:24:22;;;;;;;4.97;3.72;;;28.30;93.40;;;;;;5015669;28;20130;-48
2022/07/24 11:26:55;;;;;;;4.35;3.35;;;28.20;93.90;;;;;;4992689;28;20124;-49
2022/07/24 11:29:30;;;;;;;4.28;3.13;;;28.10;93.80;;;;;;4971235;28;20508;-49
2022/07/24 11:32:18;;;;;;;4.38;3.50;;;28.10;94.30;;;;;;4976178;28;20053;-49
2022/07/24 11:34:56;;;;;;;6.72;3.72;;;27.90;93.40;;;;;;4991981;28;20046;-53
2022/07/24 11:37:42;;;;;;;4.55;3.10;;;27.90;94.00;;;;;;4987301;28;20077;-51
2022/07/24 11:40:29;;;;;;;4.20;3.47;;;28.00;93.50;;;;;;4991527;28;20045;-57
2022/07/24 11:42:59;;;;;;;3.53;3.08;;;28.10;93.90;;;;;;4987884;28;20056;-51
2022/07/24 11:45:26;;;;;;;5.05;3.10;;;28.20;94.10;;;;;;5001156;28;20050;-51
2022/07/24 11:47:56;;;;;;;5.30;4.07;;;28.30;93.90;;;;;;5001582;28;20492;-51
2022/07/24 11:50:32;;;;;;;4.35;3.30;;;28.50;94.00;;;;;;4991327;28;20061;-53
2022/07/24 11:52:59;;;;;;;5.05;3.42;;;28.50;93.70;;;;;;4974166;28;20054;-53
2022/07/24 11:55:37;;;;;;;4.50;3.83;;;28.50;94.00;;;;;;4990312;28;20538;-49
2022/07/24 11:58:05;;;;;;;4.20;3.28;;;28.50;93.70;;;;;;4971171;28;20042;-49
2022/07/24 12:00:34;;;;;;;6.20;3.75;;;28.40;93.50;;;;;;5020434;28;20111;-50
2022/07/24 12:03:06;;;;;;;3.88;3.50;;;28.50;93.50;;;;;;5027833;28;20049;-52
2022/07/24 12:05:37;;;;;;;7.55;3.65;;;28.20;92.80;;;;;;5013802;28;20061;-44
2022/07/24 12:08:24;;;;;;;5.97;3.78;;;27.90;92.60;;;;;;4972350;28;20436;-52
2022/07/24 12:11:01;;;;;;;3.80;3.50;;;27.80;93.50;;;;;;4986948;28;20069;-52
2022/07/24 12:13:32;;;;;;;7.07;3.40;;;27.70;93.90;;;;;;4990484;28;20046;-50
2022/07/24 12:16:03;;;;;;;3.60;3.30;;;27.50;94.30;;;;;;5017832;28;20053;-52
2022/07/24 12:18:31;;;;;;;12.68;3.50;;;27.40;93.90;;;;;;4995906;28;20042;-49
2022/07/24 12:21:01;;;;;;;5.13;3.10;;;27.40;94.10;;;;;;4993850;28;20050;-49
2022/07/24 12:23:41;;;;;;;4.53;3.55;;;27.40;93.90;;;;;;5008686;28;20049;-52
2022/07/24 12:26:09;;;;;;;6.03;3.38;;;27.20;93.60;;;;;;5027447;28;20500;-51
2022/07/24 12:28:40;;;;;;;3.75;3.28;;;27.10;94.00;;;;;;4993026;28;20053;-52
2022/07/24 12:31:09;;;;;;;4.72;3.38;;;27.10;94.40;;;;;;5000382;28;20061;-52
2022/07/24 12:33:36;;;;;;;6.82;3.90;;;27.20;94.30;;;;;;5009220;28;20687;-53
2022/07/24 12:36:11;;;;;;;3.53;3.20;;;27.30;94.60;;;;;;4995791;28;20049;-49
2022/07/24 12:38:56;;;;;;;6.68;3.42;;;27.50;95.10;;;;;;4995042;28;20053;-51
2022/07/24 12:41:29;;;;;;;4.45;3.10;;;27.50;94.70;;;;;;4993749;28;20053;-48
2022/07/24 12:43:59;;;;;;;4.43;3.60;;;27.60;93.70;;;;;;5007848;28;20073;-52
2022/07/24 12:46:35;;;;;;;4.85;3.50;;;27.70;94.10;;;;;;4971720;28;20046;-50
2022/07/24 12:49:14;;;;;;;4.03;3.45;;;27.90;95.00;;;;;;4975652;28;20054;-52
2022/07/24 12:51:48;;;;;;;4.85;3.13;;;28.00;94.30;;;;;;4970909;28;20057;-49
2022/07/24 12:54:51;;;;;;;3.50;2.95;;;28.00;94.00;;;;;;4969712;28;20371;-54
2022/07/24 12:57:21;;;;;;;6.28;3.03;;;28.10;93.50;;;;;;4928107;28;20047;-53